createdAt,value
2023-01-19T00:03:28.463Z,3.59
2023-01-19T00:08:31.897Z,3.50
2023-01-19T00:13:36.198Z,3.46
2023-01-19T00:18:39.041Z,3.55
2023-01-19T00:23:42.406Z,3.70
2023-01-19T00:28:46.982Z,3.75
2023-01-19T00:33:52.598Z,3.53
2023-01-19T00:38:55.719Z,3.53
2023-01-19T00:44:00.811Z,3.66
2023-01-19T00:49:04.060Z,3.98
2023-01-19T00:54:10.414Z,4.00
2023-01-19T00:59:14.925Z,3.98
2023-01-19T01:04:18.031Z,3.87
2023-01-19T01:09:20.961Z,3.84
2023-01-19T01:14:25.291Z,3.86
2023-01-19T01:19:28.548Z,3.79
2023-01-19T01:24:32.069Z,3.79
2023-01-19T01:29:55.687Z,3.76
2023-01-19T01:34:58.940Z,3.73
2023-01-19T01:40:01.862Z,3.75
2023-01-19T01:45:08.913Z,3.73
2023-01-19T01:50:15.545Z,3.71
2023-01-19T01:55:32.084Z,3.70
2023-01-19T02:00:50.278Z,3.63
2023-01-19T02:05:54.286Z,3.57
2023-01-19T02:11:15.329Z,3.53
2023-01-19T02:16:22.087Z,3.54
2023-01-19T02:21:29.109Z,3.54
2023-01-19T02:26:37.801Z,3.68
2023-01-19T02:31:41.184Z,3.68
2023-01-19T02:36:46.792Z,3.70
2023-01-19T02:41:53.377Z,3.89
2023-01-19T02:46:56.287Z,4.02
2023-01-19T02:52:01.071Z,3.96
2023-01-19T02:57:16.040Z,4.05
2023-01-19T03:02:27.335Z,4.14
2023-01-19T03:07:39.176Z,4.00
2023-01-19T03:12:47.179Z,3.92
2023-01-19T03:17:51.369Z,4.04
2023-01-19T03:22:56.687Z,4.15
2023-01-19T03:28:00.879Z,4.19
2023-01-19T03:33:14.289Z,4.25
2023-01-19T03:38:19.604Z,4.31
2023-01-19T03:43:24.625Z,4.35
2023-01-19T03:48:27.739Z,4.26
2023-01-19T03:53:30.815Z,4.31
2023-01-19T03:58:35.147Z,4.28
2023-01-19T04:03:38.101Z,4.26
2023-01-19T04:08:40.943Z,4.28
2023-01-19T04:13:45.869Z,4.18
2023-01-19T04:18:49.214Z,4.27
2023-01-19T04:23:53.138Z,4.31
2023-01-19T04:29:17.797Z,4.36
2023-01-19T04:34:20.640Z,4.38
2023-01-19T04:39:23.627Z,4.36
2023-01-19T04:44:27.921Z,4.36
2023-01-19T04:49:30.824Z,4.48
2023-01-19T04:54:53.197Z,4.55
2023-01-19T04:59:57.380Z,4.42
2023-01-19T05:05:00.273Z,4.29
2023-01-19T05:10:03.107Z,4.17
2023-01-19T05:15:09.677Z,4.11
2023-01-19T05:20:23.635Z,4.05
2023-01-19T05:25:26.629Z,4.01
2023-01-19T05:30:30.938Z,4.03
2023-01-19T05:35:36.297Z,4.02
2023-01-19T05:40:39.417Z,3.89
2023-01-19T05:46:02.410Z,3.86
2023-01-19T05:51:06.136Z,3.84
2023-01-19T05:56:10.372Z,3.88
2023-01-19T06:01:14.631Z,4.25
2023-01-19T06:06:20.569Z,4.22
2023-01-19T06:11:37.868Z,4.16
2023-01-19T06:16:42.145Z,3.97
2023-01-19T06:21:49.794Z,3.86
2023-01-19T06:26:52.726Z,3.85
2023-01-19T06:31:58.158Z,3.91
2023-01-19T06:37:16.696Z,3.95
2023-01-19T06:42:22.336Z,3.82
2023-01-19T06:47:26.714Z,3.73
2023-01-19T06:52:29.572Z,3.57
2023-01-19T06:57:32.397Z,3.60
2023-01-19T07:02:51.946Z,3.70
2023-01-19T07:07:55.352Z,3.46
2023-01-19T07:12:59.794Z,3.48
2023-01-19T07:18:07.687Z,3.46
2023-01-19T07:23:13.581Z,3.50
2023-01-19T07:28:29.995Z,3.41
2023-01-19T07:33:34.238Z,3.53
2023-01-19T07:38:40.735Z,3.28
2023-01-19T07:43:43.710Z,3.22
2023-01-19T07:48:48.098Z,3.20
2023-01-19T07:54:04.625Z,3.14
2023-01-19T07:59:09.672Z,3.19
2023-01-19T08:04:16.019Z,3.11
2023-01-19T08:09:19.155Z,3.07
2023-01-19T08:14:22.084Z,3.13
2023-01-19T08:19:44.960Z,3.19
2023-01-19T08:24:50.207Z,3.28
2023-01-19T08:29:54.454Z,3.54
2023-01-19T08:34:58.692Z,3.84
2023-01-19T08:40:01.593Z,4.04
2023-01-19T08:45:16.542Z,4.06
2023-01-19T08:50:20.781Z,4.04
2023-01-19T08:55:23.594Z,4.04
2023-01-19T09:00:27.348Z,4.29
2023-01-19T09:05:35.496Z,4.22
2023-01-19T09:10:53.026Z,4.14
2023-01-19T09:15:56.255Z,4.12
2023-01-19T09:21:02.370Z,4.35
2023-01-19T09:26:07.082Z,4.24
2023-01-19T09:31:10.553Z,4.50
2023-01-19T09:36:32.461Z,4.57
2023-01-19T09:41:36.591Z,4.63
2023-01-19T09:46:41.428Z,4.85
2023-01-19T09:51:47.957Z,5.13
2023-01-19T09:57:02.656Z,5.29
2023-01-19T10:02:15.210Z,5.50
2023-01-19T10:07:30.301Z,5.72
2023-01-19T10:12:53.509Z,5.83
2023-01-19T10:18:05.594Z,5.78
2023-01-19T10:23:21.261Z,6.15
2023-01-19T10:28:25.500Z,5.62
2023-01-19T10:33:28.466Z,5.50
2023-01-19T10:38:34.420Z,5.48
2023-01-19T10:43:39.769Z,5.54
2023-01-19T10:48:50.776Z,5.55
2023-01-19T10:53:58.028Z,5.61
2023-01-19T10:59:02.593Z,5.61
2023-01-19T11:04:21.296Z,5.71
2023-01-19T11:09:25.528Z,5.82
2023-01-19T11:14:31.537Z,5.91
2023-01-19T11:19:37.444Z,5.93
2023-01-19T11:24:43.449Z,6.12
2023-01-19T11:29:50.114Z,6.90
2023-01-19T11:34:55.894Z,7.09
2023-01-19T11:40:23.152Z,6.95
2023-01-19T11:45:27.876Z,6.62
2023-01-19T11:50:34.391Z,6.60
2023-01-19T11:55:43.012Z,6.66
2023-01-19T12:00:50.974Z,6.51
2023-01-19T12:05:56.811Z,6.58
2023-01-19T12:11:01.494Z,6.46
2023-01-19T12:16:08.528Z,6.18
2023-01-19T12:21:11.504Z,5.98
2023-01-19T12:26:30.314Z,5.60
2023-01-19T12:31:33.749Z,5.80
2023-01-19T12:36:40.349Z,6.46
2023-01-19T12:41:45.911Z,6.27
2023-01-19T12:46:50.275Z,5.64
2023-01-19T12:51:55.294Z,5.42
2023-01-19T12:57:03.614Z,5.83
2023-01-19T13:02:52.532Z,6.05
2023-01-19T13:08:17.840Z,6.36
2023-01-19T13:13:23.600Z,6.57
2023-01-19T13:18:27.627Z,6.57
2023-01-19T13:23:53.754Z,7.72
2023-01-19T13:28:59.629Z,9.05
2023-01-19T13:34:06.213Z,8.98
2023-01-19T13:39:18.755Z,7.88
2023-01-19T13:44:28.635Z,6.84
2023-01-19T13:49:34.835Z,6.50
2023-01-19T13:54:38.041Z,6.69
2023-01-19T13:59:42.338Z,6.65
2023-01-19T14:04:45.438Z,6.63
2023-01-19T14:09:50.323Z,6.55
2023-01-19T14:14:54.650Z,6.33
2023-01-19T14:20:01.013Z,5.89
2023-01-19T14:25:31.674Z,5.68
2023-01-19T14:30:36.753Z,5.54
2023-01-19T14:35:39.693Z,5.46
2023-01-19T14:40:42.909Z,5.47
2023-01-19T14:45:48.317Z,5.40
2023-01-19T14:51:02.721Z,5.31
2023-01-19T14:56:07.963Z,5.23
2023-01-19T15:01:12.541Z,5.50
2023-01-19T15:06:17.515Z,5.46
2023-01-19T15:11:46.132Z,5.50
2023-01-19T15:16:50.698Z,5.60
2023-01-19T15:21:53.642Z,5.29
2023-01-19T15:27:01.579Z,5.02
2023-01-19T15:32:06.106Z,4.81
2023-01-19T15:37:09.053Z,5.04
2023-01-19T15:42:14.052Z,5.28
2023-01-19T15:47:18.329Z,5.01
2023-01-19T15:52:21.420Z,4.83
2023-01-19T15:57:24.223Z,4.96
2023-01-19T16:02:28.563Z,4.82
2023-01-19T16:07:31.423Z,5.02
2023-01-19T16:12:37.095Z,4.86
2023-01-19T16:18:08.075Z,4.93
2023-01-19T16:23:15.337Z,4.48
2023-01-19T16:28:18.642Z,4.41
2023-01-19T16:33:23.057Z,4.68
2023-01-19T16:38:25.979Z,4.55
2023-01-19T16:43:28.866Z,4.81
2023-01-19T16:48:33.161Z,4.88
2023-01-19T16:53:36.283Z,4.93
2023-01-19T16:58:39.399Z,4.82
2023-01-19T17:03:44.274Z,4.89
2023-01-19T17:08:54.496Z,4.68
2023-01-19T17:14:00.060Z,4.57
2023-01-19T17:19:06.322Z,4.95
2023-01-19T17:24:09.235Z,5.12
2023-01-19T17:29:13.273Z,5.11
2023-01-19T17:34:32.530Z,5.31
2023-01-19T17:39:35.360Z,5.39
2023-01-19T17:44:38.339Z,5.12
2023-01-19T17:49:42.512Z,4.91
2023-01-19T17:54:45.550Z,4.82
2023-01-19T18:00:10.194Z,4.93
2023-01-19T18:05:17.984Z,4.30
2023-01-19T18:10:20.866Z,3.88
2023-01-19T18:15:23.672Z,3.78
2023-01-19T18:20:31.685Z,3.74
2023-01-19T18:25:43.885Z,3.89
2023-01-19T18:30:46.801Z,3.90
2023-01-19T18:35:51.166Z,3.47
2023-01-19T18:41:01.645Z,3.60
2023-01-19T18:46:05.044Z,3.58
2023-01-19T18:51:29.709Z,3.41
2023-01-19T18:56:32.579Z,3.37
2023-01-19T19:01:36.413Z,3.40
2023-01-19T19:06:40.723Z,3.31
2023-01-19T19:11:43.700Z,2.79
2023-01-19T19:17:06.899Z,2.80
2023-01-19T19:22:11.077Z,2.03
2023-01-19T19:27:14.423Z,2.34
2023-01-19T19:32:20.568Z,2.67
2023-01-19T19:37:26.129Z,2.74
2023-01-19T19:42:38.918Z,2.86
2023-01-19T19:47:42.820Z,2.26
2023-01-19T19:52:48.326Z,2.84
2023-01-19T19:57:52.636Z,3.18
2023-01-19T20:02:55.681Z,3.29
2023-01-19T20:08:12.393Z,2.95
2023-01-19T20:13:19.181Z,2.92
2023-01-19T20:18:22.036Z,2.68
2023-01-19T20:23:26.370Z,2.19
2023-01-19T20:28:29.389Z,2.24
2023-01-19T20:33:53.248Z,2.19
2023-01-19T20:38:58.206Z,1.89
2023-01-19T20:44:01.182Z,2.00
2023-01-19T20:49:04.067Z,2.10
2023-01-19T20:54:08.567Z,2.18
2023-01-19T20:59:24.973Z,2.63
2023-01-19T21:04:27.827Z,2.28
2023-01-19T21:09:32.210Z,2.61
2023-01-19T21:14:35.086Z,2.89
2023-01-19T21:19:37.985Z,3.05
2023-01-19T21:25:01.031Z,3.48
2023-01-19T21:30:04.549Z,3.52
2023-01-19T21:35:08.236Z,3.46
2023-01-19T21:40:13.763Z,3.27
2023-01-19T21:45:16.886Z,2.99
2023-01-19T21:50:23.688Z,2.75
2023-01-19T21:55:28.134Z,1.66
2023-01-19T22:00:31.642Z,1.26
2023-01-19T22:05:36.978Z,1.17
2023-01-19T22:10:41.273Z,1.30
2023-01-19T22:15:44.141Z,1.11
2023-01-19T22:20:46.959Z,1.11
2023-01-19T22:25:51.211Z,1.32
2023-01-19T22:30:54.172Z,1.35
2023-01-19T22:36:10.398Z,1.52
2023-01-19T22:41:19.676Z,1.34
2023-01-19T22:46:24.700Z,1.30
2023-01-19T22:51:28.368Z,1.39
2023-01-19T22:56:34.392Z,1.71
2023-01-19T23:01:39.241Z,1.84
2023-01-19T23:06:42.697Z,1.97
2023-01-19T23:11:50.220Z,1.55
2023-01-19T23:16:53.344Z,1.62
2023-01-19T23:21:56.225Z,1.65
2023-01-19T23:27:02.278Z,1.54
2023-01-19T23:32:05.693Z,1.77
2023-01-19T23:37:08.536Z,1.50
2023-01-19T23:42:12.779Z,1.65
2023-01-19T23:47:15.609Z,1.32
2023-01-19T23:52:18.504Z,1.19
2023-01-19T23:57:22.731Z,1.26
